Time;durP1;ratioP1;P1;durP2;ratioP2;P2;SDS_P1;SDS_P2;PMS_P1;PMS_P2;Temp;Humidity;BMP_temperature;BMP_pressure;BME280_temperature;BME280_humidity;BME280_pressure;Samples;Min_cycle;Max_cycle;Signal;HPM_P1;HPM_P2
2023/07/21 00:01:43;;;;;;;2.08;1.50;;;;;;;;;;5014975;28;20026;-74
2023/07/21 00:04:09;;;;;;;1.60;1.50;;;;;;;;;;5014912;28;20022;-74
2023/07/21 00:06:34;;;;;;;3.03;1.48;;;;;;;;;;5013949;28;20025;-73
2023/07/21 00:08:59;;;;;;;1.70;1.60;;;;;;;;;;5013797;28;20495;-73
2023/07/21 00:11:24;;;;;;;1.50;1.40;;;;;;;;;;5015440;28;20076;-73
2023/07/21 00:13:50;;;;;;;2.03;1.60;;;;;;;;;;5015259;28;20469;-73
2023/07/21 00:16:15;;;;;;;1.70;1.60;;;;;;;;;;5015120;28;20060;-73
2023/07/21 00:18:41;;;;;;;2.67;1.30;;;;;;;;;;5015013;28;20507;-74
2023/07/21 00:21:07;;;;;;;4.85;1.40;;;;;;;;;;5014989;28;20263;-73
2023/07/21 00:23:33;;;;;;;2.17;1.40;;;;;;;;;;5014857;28;20393;-73
2023/07/21 00:26:00;;;;;;;2.38;1.33;;;;;;;;;;5015207;28;20030;-73
2023/07/21 00:28:26;;;;;;;3.47;1.60;;;;;;;;;;5014768;28;20026;-74
2023/07/21 00:30:51;;;;;;;3.35;1.50;;;;;;;;;;5014724;28;20068;-73
2023/07/21 00:33:17;;;;;;;2.42;1.70;;;;;;;;;;5014688;28;20037;-73
2023/07/21 00:35:43;;;;;;;4.57;1.73;;;;;;;;;;5014397;28;20105;-73
2023/07/21 00:38:09;;;;;;;2.90;1.30;;;;;;;;;;5014770;28;20123;-73
2023/07/21 00:40:37;;;;;;;1.83;1.30;;;;;;;;;;5014461;28;20157;-73
2023/07/21 00:43:03;;;;;;;3.08;1.63;;;;;;;;;;5014496;28;20508;-73
2023/07/21 00:45:32;;;;;;;1.80;1.33;;;;;;;;;;5014658;28;20129;-74
2023/07/21 00:47:59;;;;;;;1.85;1.60;;;;;;;;;;5014368;28;20026;-73
2023/07/21 00:50:25;;;;;;;1.63;1.52;;;;;;;;;;5014326;28;20033;-73
2023/07/21 00:52:51;;;;;;;1.85;1.63;;;;;;;;;;5014236;28;20034;-74
2023/07/21 00:55:16;;;;;;;2.50;1.75;;;;;;;;;;5014244;28;20025;-73
2023/07/21 00:57:43;;;;;;;1.95;1.67;;;;;;;;;;5014520;28;20053;-73
2023/07/21 01:00:11;;;;;;;2.42;1.60;;;;;;;;;;5012978;28;20045;-74
2023/07/21 01:02:36;;;;;;;2.38;1.70;;;;;;;;;;5014171;28;20072;-73
2023/07/21 01:05:02;;;;;;;1.80;1.57;;;;;;;;;;5014705;28;20026;-74
2023/07/21 01:07:31;;;;;;;2.65;1.65;;;;;;;;;;5014128;28;20259;-73
2023/07/21 01:09:57;;;;;;;4.88;1.60;;;;;;;;;;5012740;28;20033;-73
2023/07/21 01:12:23;;;;;;;1.58;1.45;;;;;;;;;;5012622;28;20129;-74
2023/07/21 01:14:48;;;;;;;2.20;1.52;;;;;;;;;;5014276;28;20104;-73
2023/07/21 01:17:15;;;;;;;5.65;1.58;;;;;;;;;;5013869;28;20071;-73
2023/07/21 01:19:41;;;;;;;2.58;1.50;;;;;;;;;;5013840;28;20432;-74
2023/07/21 01:22:15;;;;;;;2.47;1.63;;;;;;;;;;5013851;28;20401;-73
2023/07/21 01:24:44;;;;;;;3.28;1.50;;;;;;;;;;5013747;28;20087;-73
2023/07/21 01:27:11;;;;;;;1.60;1.50;;;;;;;;;;5013901;28;20022;-74
2023/07/21 01:29:41;;;;;;;2.40;1.70;;;;;;;;;;5013822;28;20037;-73
2023/07/21 01:32:09;;;;;;;2.50;1.67;;;;;;;;;;5012286;28;20032;-75
2023/07/21 01:34:35;;;;;;;2.42;1.50;;;;;;;;;;5012612;28;20084;-74
2023/07/21 01:37:01;;;;;;;1.95;1.60;;;;;;;;;;5013500;28;20053;-74
2023/07/21 01:39:29;;;;;;;3.63;1.45;;;;;;;;;;5012106;28;20029;-75
2023/07/21 01:41:55;;;;;;;1.85;1.70;;;;;;;;;;5011759;28;20030;-75
2023/07/21 01:44:21;;;;;;;2.00;1.35;;;;;;;;;;5012671;28;20052;-74
2023/07/21 01:46:47;;;;;;;2.88;1.80;;;;;;;;;;5013085;28;20025;-74
2023/07/21 01:49:13;;;;;;;1.55;1.45;;;;;;;;;;5011407;28;20052;-74
2023/07/21 01:51:39;;;;;;;3.67;1.67;;;;;;;;;;5012131;28;20022;-74
2023/07/21 01:54:11;;;;;;;4.03;1.60;;;;;;;;;;5013430;28;20503;-75
2023/07/21 01:56:44;;;;;;;1.90;1.45;;;;;;;;;;5014136;28;20484;-74
2023/07/21 01:59:10;;;;;;;;;;;;;;;;;;5014017;28;20469;-74
2023/07/21 02:01:37;;;;;;;2.13;1.77;;;;;;;;;;5012017;28;19909;-74
2023/07/21 02:04:03;;;;;;;3.28;1.73;;;;;;;;;;5013264;28;20487;-74
2023/07/21 02:06:29;;;;;;;2.45;1.50;;;;;;;;;;5013301;28;20517;-75
2023/07/21 02:08:54;;;;;;;2.22;1.45;;;;;;;;;;5011931;28;20061;-75
2023/07/21 02:11:22;;;;;;;2.13;1.70;;;;;;;;;;5013578;28;20392;-74
2023/07/21 02:13:47;;;;;;;1.58;1.48;;;;;;;;;;5013186;28;20030;-75
2023/07/21 02:16:13;;;;;;;1.80;1.60;;;;;;;;;;5013353;28;20424;-74
2023/07/21 02:18:39;;;;;;;2.90;2.00;;;;;;;;;;5011811;28;20026;-74
2023/07/21 02:21:04;;;;;;;1.70;1.60;;;;;;;;;;5013111;28;20481;-75
2023/07/21 02:23:31;;;;;;;3.20;2.10;;;;;;;;;;5013380;28;20025;-74
2023/07/21 02:25:57;;;;;;;2.00;1.55;;;;;;;;;;5013091;28;20021;-75
2023/07/21 02:28:22;;;;;;;4.00;1.60;;;;;;;;;;5012937;28;20556;-75
2023/07/21 02:31:02;;;;;;;1.60;1.50;;;;;;;;;;5013238;28;20034;-75
2023/07/21 02:33:28;;;;;;;2.15;1.75;;;;;;;;;;5013229;28;20029;-75
2023/07/21 02:35:54;;;;;;;2.38;1.60;;;;;;;;;;5011721;28;20497;-74
2023/07/21 02:38:19;;;;;;;1.95;1.60;;;;;;;;;;5012878;28;20029;-74
2023/07/21 02:40:44;;;;;;;3.10;1.80;;;;;;;;;;5013127;28;20144;-74
2023/07/21 02:43:09;;;;;;;2.17;1.60;;;;;;;;;;5012912;28;20310;-75
2023/07/21 02:45:35;;;;;;;2.30;1.65;;;;;;;;;;5012847;28;20759;-74
2023/07/21 02:48:02;;;;;;;3.13;1.70;;;;;;;;;;5012852;28;20030;-74
2023/07/21 02:50:30;;;;;;;4.93;1.70;;;;;;;;;;5012783;28;20029;-75
2023/07/21 02:52:55;;;;;;;3.53;1.70;;;;;;;;;;5012729;28;20022;-74
2023/07/21 02:55:20;;;;;;;2.10;1.90;;;;;;;;;;5012861;28;20156;-74
2023/07/21 02:57:46;;;;;;;3.97;2.00;;;;;;;;;;5012697;28;20030;-74
2023/07/21 03:00:12;;;;;;;2.67;1.65;;;;;;;;;;5014006;28;20087;-74
2023/07/21 03:02:41;;;;;;;2.60;1.75;;;;;;;;;;5016370;28;20037;-74
2023/07/21 03:05:07;;;;;;;3.83;1.80;;;;;;;;;;5016348;28;20100;-74
2023/07/21 03:07:32;;;;;;;1.90;1.50;;;;;;;;;;5014954;28;20029;-75
2023/07/21 03:09:57;;;;;;;1.90;1.70;;;;;;;;;;5015067;28;20025;-73
2023/07/21 03:12:22;;;;;;;2.95;1.70;;;;;;;;;;5015019;28;20044;-73
2023/07/21 03:14:48;;;;;;;1.92;1.60;;;;;;;;;;5016659;28;20045;-73
2023/07/21 03:17:14;;;;;;;2.20;1.80;;;;;;;;;;5016601;28;20084;-73
2023/07/21 03:19:40;;;;;;;2.47;1.70;;;;;;;;;;5015210;28;20034;-72
2023/07/21 03:22:05;;;;;;;2.78;1.70;;;;;;;;;;5016327;28;20026;-73
2023/07/21 03:24:31;;;;;;;7.05;1.90;;;;;;;;;;5016054;28;20478;-73
2023/07/21 03:26:56;;;;;;;2.00;1.60;;;;;;;;;;5015871;28;20034;-73
2023/07/21 03:29:21;;;;;;;3.43;1.60;;;;;;;;;;5015868;28;20037;-73
2023/07/21 03:31:46;;;;;;;1.90;1.60;;;;;;;;;;5015890;28;20258;-73
2023/07/21 03:34:12;;;;;;;1.77;1.60;;;;;;;;;;5015253;28;20022;-73
2023/07/21 03:36:37;;;;;;;2.63;1.48;;;;;;;;;;5016139;28;20790;-73
2023/07/21 03:39:02;;;;;;;3.43;1.70;;;;;;;;;;5015633;28;20022;-73
2023/07/21 03:41:28;;;;;;;2.70;1.60;;;;;;;;;;5015682;28;20259;-73
2023/07/21 03:43:53;;;;;;;1.55;1.40;;;;;;;;;;5015879;28;20053;-73
2023/07/21 03:46:18;;;;;;;2.85;1.50;;;;;;;;;;5015974;28;20101;-73
2023/07/21 03:48:44;;;;;;;2.08;1.55;;;;;;;;;;5015521;28;20389;-73
2023/07/21 03:51:10;;;;;;;2.67;1.65;;;;;;;;;;5016065;28;20029;-73
2023/07/21 03:53:35;;;;;;;2.60;1.60;;;;;;;;;;5015526;28;20030;-73
2023/07/21 03:56:00;;;;;;;1.80;1.50;;;;;;;;;;5015525;28;20018;-73
2023/07/21 03:58:26;;;;;;;4.47;1.70;;;;;;;;;;5014084;28;20257;-73
2023/07/21 04:00:51;;;;;;;4.72;1.70;;;;;;;;;;5015658;28;20033;-73
2023/07/21 04:03:19;;;;;;;3.38;1.55;;;;;;;;;;5015263;28;20056;-73
2023/07/21 04:05:44;;;;;;;2.85;1.40;;;;;;;;;;5015430;28;20029;-73
2023/07/21 04:08:10;;;;;;;7.32;1.73;;;;;;;;;;5015431;28;20516;-73
2023/07/21 04:10:40;;;;;;;2.38;1.65;;;;;;;;;;5014626;28;20029;-73
2023/07/21 04:13:06;;;;;;;2.90;1.80;;;;;;;;;;5013782;28;20025;-73
2023/07/21 04:15:31;;;;;;;4.05;1.63;;;;;;;;;;5014945;28;20030;-72
2023/07/21 04:17:56;;;;;;;2.75;1.80;;;;;;;;;;5014930;28;20030;-72
2023/07/21 04:20:22;;;;;;;8.40;1.80;;;;;;;;;;5015156;28;20444;-72
2023/07/21 04:22:48;;;;;;;2.38;1.70;;;;;;;;;;5013791;28;20251;-72
2023/07/21 04:25:15;;;;;;;1.60;1.50;;;;;;;;;;5013925;28;20065;-73
2023/07/21 04:27:41;;;;;;;4.10;1.90;;;;;;;;;;5014890;28;20442;-72
2023/07/21 04:30:07;;;;;;;2.70;1.73;;;;;;;;;;5014964;28;20053;-72
2023/07/21 04:32:33;;;;;;;2.22;2.03;;;;;;;;;;5013677;28;20080;-72
2023/07/21 04:34:58;;;;;;;1.83;1.52;;;;;;;;;;5015137;28;20026;-72
2023/07/21 04:37:23;;;;;;;1.67;1.50;;;;;;;;;;5015082;28;20028;-72
2023/07/21 04:39:48;;;;;;;4.35;1.77;;;;;;;;;;5015045;28;20773;-73
2023/07/21 04:42:13;;;;;;;1.77;1.63;;;;;;;;;;5013798;28;20030;-72
2023/07/21 04:44:39;;;;;;;1.63;1.50;;;;;;;;;;5014857;28;20057;-71
2023/07/21 04:47:04;;;;;;;2.92;1.67;;;;;;;;;;5014498;28;20726;-70
2023/07/21 04:49:30;;;;;;;3.10;1.65;;;;;;;;;;5014566;28;20034;-72
2023/07/21 04:51:58;;;;;;;3.85;1.83;;;;;;;;;;5014315;28;20021;-72
2023/07/21 04:54:23;;;;;;;1.70;1.60;;;;;;;;;;5014649;28;20029;-72
2023/07/21 04:56:48;;;;;;;2.05;1.80;;;;;;;;;;5014291;28;20228;-73
2023/07/21 04:59:14;;;;;;;2.20;1.70;;;;;;;;;;5014246;28;20095;-71
2023/07/21 05:01:39;;;;;;;2.00;1.67;;;;;;;;;;5014296;28;20313;-72
2023/07/21 05:04:05;;;;;;;5.05;1.77;;;;;;;;;;5014429;28;20259;-72
2023/07/21 05:06:30;;;;;;;2.15;1.60;;;;;;;;;;5012897;28;20024;-72
2023/07/21 05:08:55;;;;;;;2.22;1.65;;;;;;;;;;5013882;28;20428;-71
2023/07/21 05:11:21;;;;;;;1.87;1.40;;;;;;;;;;5012699;28;20072;-72
2023/07/21 05:13:48;;;;;;;1.58;1.48;;;;;;;;;;5014126;28;20286;-73
2023/07/21 05:16:13;;;;;;;3.85;1.60;;;;;;;;;;5013956;28;20026;-72
2023/07/21 05:18:39;;;;;;;1.52;1.42;;;;;;;;;;5014075;28;20041;-72
2023/07/21 05:21:05;;;;;;;2.20;1.52;;;;;;;;;;5013988;28;20026;-72
2023/07/21 05:23:31;;;;;;;2.65;1.60;;;;;;;;;;5013388;28;20047;-72
2023/07/21 05:26:01;;;;;;;1.83;1.42;;;;;;;;;;5012544;28;20029;-73
2023/07/21 05:28:29;;;;;;;2.63;1.45;;;;;;;;;;5012507;28;20438;-72
2023/07/21 05:30:55;;;;;;;1.63;1.45;;;;;;;;;;5014033;28;20100;-72
2023/07/21 05:33:20;;;;;;;4.10;1.60;;;;;;;;;;5013881;28;20576;-73
2023/07/21 05:35:46;;;;;;;1.80;1.40;;;;;;;;;;5014064;28;20072;-72
2023/07/21 05:38:13;;;;;;;1.88;1.63;;;;;;;;;;5013178;28;20018;-72
2023/07/21 05:40:38;;;;;;;3.92;1.58;;;;;;;;;;5013641;28;20097;-72
2023/07/21 05:43:04;;;;;;;1.50;1.40;;;;;;;;;;5013596;28;20030;-73
2023/07/21 05:45:29;;;;;;;1.70;1.50;;;;;;;;;;5012378;28;20104;-72
2023/07/21 05:47:55;;;;;;;2.53;1.40;;;;;;;;;;5013762;28;20041;-72
2023/07/21 05:50:21;;;;;;;2.13;1.48;;;;;;;;;;5013350;28;20290;-72
2023/07/21 05:52:50;;;;;;;2.50;1.50;;;;;;;;;;5013325;28;20022;-72
2023/07/21 05:55:16;;;;;;;1.70;1.30;;;;;;;;;;5012232;28;20025;-72
2023/07/21 05:57:42;;;;;;;1.75;1.48;;;;;;;;;;5013417;28;20032;-72
2023/07/21 06:00:12;;;;;;;2.22;1.30;;;;;;;;;;5013716;28;20436;-72
2023/07/21 06:02:38;;;;;;;1.52;1.40;;;;;;;;;;5013493;28;20041;-71
2023/07/21 06:05:03;;;;;;;1.52;1.35;;;;;;;;;;5013675;28;20057;-72
2023/07/21 06:07:28;;;;;;;2.65;1.30;;;;;;;;;;5013316;28;20034;-74
2023/07/21 06:09:54;;;;;;;1.20;1.10;;;;;;;;;;5013231;28;20480;-76
2023/07/21 06:12:19;;;;;;;2.13;1.40;;;;;;;;;;5013666;28;20072;-75
2023/07/21 06:14:44;;;;;;;2.35;1.55;;;;;;;;;;5013408;28;20271;-74
2023/07/21 06:17:09;;;;;;;1.87;1.47;;;;;;;;;;5011724;28;20026;-74
2023/07/21 06:19:35;;;;;;;5.78;1.58;;;;;;;;;;5013306;28;20309;-74
2023/07/21 06:22:00;;;;;;;2.08;1.52;;;;;;;;;;5013273;28;20054;-74
2023/07/21 06:24:26;;;;;;;3.20;1.30;;;;;;;;;;5013201;28;20026;-74
2023/07/21 06:26:51;;;;;;;5.72;1.50;;;;;;;;;;5013269;28;20021;-75
2023/07/21 06:29:16;;;;;;;1.55;1.42;;;;;;;;;;5011627;28;20030;-75
2023/07/21 06:31:41;;;;;;;1.80;1.43;;;;;;;;;;5013024;28;20096;-75
2023/07/21 06:34:06;;;;;;;1.83;1.40;;;;;;;;;;5012516;28;20275;-76
2023/07/21 06:36:32;;;;;;;1.80;1.50;;;;;;;;;;5016857;28;20021;-74
2023/07/21 06:38:58;;;;;;;2.05;1.55;;;;;;;;;;5016756;28;20283;-74
2023/07/21 06:41:23;;;;;;;2.15;1.30;;;;;;;;;;5016841;28;20025;-74
2023/07/21 06:43:48;;;;;;;2.22;1.55;;;;;;;;;;5016694;28;20034;-74
2023/07/21 06:46:14;;;;;;;4.40;1.70;;;;;;;;;;5016731;28;20021;-74
2023/07/21 06:48:39;;;;;;;4.53;1.67;;;;;;;;;;5016366;28;20022;-74
2023/07/21 06:51:04;;;;;;;1.60;1.50;;;;;;;;;;5016637;28;20262;-74
2023/07/21 06:53:29;;;;;;;3.05;1.25;;;;;;;;;;5017049;28;20022;-76
2023/07/21 06:55:56;;;;;;;4.32;1.60;;;;;;;;;;5015804;28;20053;-75
2023/07/21 06:58:21;;;;;;;2.30;1.50;;;;;;;;;;5016422;28;20021;-75
2023/07/21 07:00:46;;;;;;;2.53;1.42;;;;;;;;;;5016322;28;20262;-75
2023/07/21 07:03:12;;;;;;;2.83;1.40;;;;;;;;;;5016981;28;20081;-74
2023/07/21 07:05:37;;;;;;;4.15;1.35;;;;;;;;;;5016672;28;20021;-74
2023/07/21 07:08:02;;;;;;;6.60;1.42;;;;;;;;;;5016307;28;20445;-75
2023/07/21 07:10:28;;;;;;;2.08;1.40;;;;;;;;;;5014959;28;20037;-75
2023/07/21 07:12:53;;;;;;;4.55;1.50;;;;;;;;;;5014854;28;20026;-75
2023/07/21 07:15:18;;;;;;;4.78;1.30;;;;;;;;;;5016198;28;20433;-75
2023/07/21 07:17:44;;;;;;;3.42;1.42;;;;;;;;;;5016285;28;20156;-75
2023/07/21 07:20:11;;;;;;;2.83;1.50;;;;;;;;;;5016108;28;20041;-75
2023/07/21 07:22:37;;;;;;;3.03;1.50;;;;;;;;;;5016007;28;20022;-75
2023/07/21 07:25:03;;;;;;;2.03;1.42;;;;;;;;;;5016015;28;20056;-75
2023/07/21 07:27:28;;;;;;;1.65;1.40;;;;;;;;;;5016010;28;20386;-75
2023/07/21 07:29:53;;;;;;;2.88;1.40;;;;;;;;;;5015528;28;20041;-76
2023/07/21 07:32:19;;;;;;;2.00;1.40;;;;;;;;;;5015839;28;20034;-75
2023/07/21 07:34:44;;;;;;;2.35;1.38;;;;;;;;;;5014519;28;20022;-75
2023/07/21 07:37:09;;;;;;;1.83;1.60;;;;;;;;;;5014508;28;20046;-75
2023/07/21 07:39:35;;;;;;;6.80;1.30;;;;;;;;;;5015876;28;20026;-75
2023/07/21 07:42:01;;;;;;;1.65;1.50;;;;;;;;;;5015705;28;20676;-76
2023/07/21 07:44:26;;;;;;;1.98;1.70;;;;;;;;;;5015877;28;20080;-75
2023/07/21 07:46:55;;;;;;;3.13;1.40;;;;;;;;;;5014742;28;20026;-76
2023/07/21 07:49:20;;;;;;;1.98;1.30;;;;;;;;;;5014219;28;20117;-74
2023/07/21 07:51:45;;;;;;;2.13;1.60;;;;;;;;;;5015562;28;20053;-76
2023/07/21 07:54:10;;;;;;;8.17;2.00;;;;;;;;;;5015387;28;20029;-76
2023/07/21 07:56:36;;;;;;;3.50;1.40;;;;;;;;;;5014475;28;20298;-77
2023/07/21 07:59:01;;;;;;;2.10;1.60;;;;;;;;;;5015310;28;20285;-77
2023/07/21 08:01:26;;;;;;;2.25;1.20;;;;;;;;;;5014040;28;20302;-77
2023/07/21 08:03:53;;;;;;;1.92;1.50;;;;;;;;;;5015206;28;20022;-76
2023/07/21 08:06:19;;;;;;;2.30;0.95;;;;;;;;;;5015178;28;20035;-77
2023/07/21 08:08:44;;;;;;;2.15;1.20;;;;;;;;;;5015062;28;20026;-76
2023/07/21 08:11:10;;;;;;;1.25;1.10;;;;;;;;;;5013965;28;20481;-76
2023/07/21 08:13:36;;;;;;;2.97;1.20;;;;;;;;;;5015098;28;20477;-76
2023/07/21 08:16:07;;;;;;;1.83;1.10;;;;;;;;;;5013984;28;20079;-77
2023/07/21 08:18:33;;;;;;;3.15;1.33;;;;;;;;;;5015233;28;20056;-76
2023/07/21 08:20:58;;;;;;;1.60;1.30;;;;;;;;;;5015381;28;20105;-76
2023/07/21 08:23:23;;;;;;;2.08;1.33;;;;;;;;;;5015745;28;20034;-76
2023/07/21 08:25:48;;;;;;;1.42;1.20;;;;;;;;;;5015821;28;20029;-76
2023/07/21 08:28:14;;;;;;;2.20;1.43;;;;;;;;;;5015930;28;20033;-75
2023/07/21 08:30:39;;;;;;;1.60;1.20;;;;;;;;;;5017643;28;20321;-77
2023/07/21 08:33:04;;;;;;;2.20;1.27;;;;;;;;;;5013249;28;20723;-76
2023/07/21 08:35:29;;;;;;;2.20;1.20;;;;;;;;;;5013907;28;20022;-77
2023/07/21 08:37:56;;;;;;;1.92;1.30;;;;;;;;;;5013437;28;20029;-76
2023/07/21 08:40:22;;;;;;;1.55;1.20;;;;;;;;;;5014952;28;20389;-76
2023/07/21 08:42:49;;;;;;;4.28;1.30;;;;;;;;;;5015984;28;20037;-77
2023/07/21 08:45:15;;;;;;;4.43;1.20;;;;;;;;;;5013960;28;20033;-77
2023/07/21 08:47:41;;;;;;;3.35;1.10;;;;;;;;;;5015940;28;20030;-77
2023/07/21 08:50:07;;;;;;;1.70;1.10;;;;;;;;;;5014822;28;20072;-76
2023/07/21 08:52:32;;;;;;;1.63;1.20;;;;;;;;;;5013896;28;20029;-76
2023/07/21 08:54:58;;;;;;;1.65;1.20;;;;;;;;;;5016298;28;20056;-77
2023/07/21 08:57:24;;;;;;;1.42;1.20;;;;;;;;;;5014893;28;20052;-77
2023/07/21 08:59:50;;;;;;;2.13;1.25;;;;;;;;;;5014451;28;20026;-77
2023/07/21 09:02:15;;;;;;;2.15;1.40;;;;;;;;;;5015008;28;20052;-77
2023/07/21 09:04:43;;;;;;;1.67;1.10;;;;;;;;;;5014290;28;20482;-76
2023/07/21 09:07:10;;;;;;;1.95;1.40;;;;;;;;;;5014120;28;20026;-77
2023/07/21 09:09:35;;;;;;;1.63;1.10;;;;;;;;;;5011975;28;20032;-75
2023/07/21 09:12:03;;;;;;;1.48;1.08;;;;;;;;;;5014795;28;20026;-79
2023/07/21 09:14:42;;;;;;;1.45;1.10;;;;;;;;;;5011541;28;20513;-78
2023/07/21 09:17:10;;;;;;;4.93;1.30;;;;;;;;;;5012491;28;20029;-76
2023/07/21 09:19:37;;;;;;;1.23;1.13;;;;;;;;;;5015186;28;20026;-76
2023/07/21 09:22:03;;;;;;;2.58;1.30;;;;;;;;;;5013908;28;20032;-77
2023/07/21 09:24:28;;;;;;;2.08;1.10;;;;;;;;;;5013690;28;20014;-76
2023/07/21 09:27:13;;;;;;;1.07;1.00;;;;;;;;;;5013760;28;20021;-77
2023/07/21 09:29:39;;;;;;;2.05;1.20;;;;;;;;;;5014787;28;20255;-77
2023/07/21 09:32:18;;;;;;;3.80;1.20;;;;;;;;;;5014002;28;20033;-77
2023/07/21 09:34:59;;;;;;;1.60;1.20;;;;;;;;;;5014280;28;20057;-75
2023/07/21 09:37:26;;;;;;;3.00;1.20;;;;;;;;;;5013718;28;20042;-75
2023/07/21 09:39:57;;;;;;;4.40;1.20;;;;;;;;;;5012877;28;20022;-75
2023/07/21 09:42:24;;;;;;;1.08;0.98;;;;;;;;;;5011630;28;20026;-75
2023/07/21 09:44:50;;;;;;;3.72;1.20;;;;;;;;;;5013450;28;20041;-76
2023/07/21 09:47:16;;;;;;;1.20;1.10;;;;;;;;;;5013112;28;20080;-75
2023/07/21 09:49:42;;;;;;;2.03;1.08;;;;;;;;;;5012843;28;20511;-76
2023/07/21 09:52:10;;;;;;;1.25;1.00;;;;;;;;;;5013547;28;20026;-75
2023/07/21 09:54:39;;;;;;;3.00;1.10;;;;;;;;;;5013474;28;20033;-75
2023/07/21 09:57:05;;;;;;;3.92;1.00;;;;;;;;;;5015244;28;20022;-80
2023/07/21 09:59:34;;;;;;;1.45;1.15;;;;;;;;;;5013844;28;20461;-76
2023/07/21 10:01:59;;;;;;;2.25;1.15;;;;;;;;;;5011928;28;20507;-77
2023/07/21 10:04:27;;;;;;;2.88;1.20;;;;;;;;;;5013296;28;20112;-77
2023/07/21 10:06:56;;;;;;;2.60;1.30;;;;;;;;;;5012009;28;20025;-77
2023/07/21 10:09:22;;;;;;;1.30;1.10;;;;;;;;;;5012663;28;20026;-77
2023/07/21 10:11:47;;;;;;;3.35;1.50;;;;;;;;;;5013209;28;20507;-77
2023/07/21 10:14:33;;;;;;;1.63;1.20;;;;;;;;;;5013354;28;20026;-77
2023/07/21 10:16:58;;;;;;;3.50;1.50;;;;;;;;;;5012038;28;20116;-77
2023/07/21 10:19:23;;;;;;;1.80;1.23;;;;;;;;;;5013314;28;20088;-77
2023/07/21 10:21:52;;;;;;;3.17;1.50;;;;;;;;;;5013472;28;20040;-77
2023/07/21 10:24:25;;;;;;;1.90;1.20;;;;;;;;;;5013326;28;20116;-77
2023/07/21 10:27:09;;;;;;;2.25;1.13;;;;;;;;;;5011893;28;20050;-77
2023/07/21 10:29:36;;;;;;;3.35;1.25;;;;;;;;;;5011513;28;20037;-77
2023/07/21 10:32:04;;;;;;;2.00;1.10;;;;;;;;;;5010566;28;20436;-77
2023/07/21 10:34:39;;;;;;;1.88;1.30;;;;;;;;;;5012544;28;20030;-77
2023/07/21 10:37:07;;;;;;;1.40;1.30;;;;;;;;;;5014602;28;20095;-77
2023/07/21 10:39:34;;;;;;;2.40;1.27;;;;;;;;;;5014900;28;20022;-78
2023/07/21 10:42:03;;;;;;;3.88;1.50;;;;;;;;;;5014613;28;20028;-78
2023/07/21 10:44:43;;;;;;;2.38;1.40;;;;;;;;;;5014228;28;20025;-78
2023/07/21 10:47:20;;;;;;;2.08;1.40;;;;;;;;;;5014768;28;20029;-77
2023/07/21 10:49:47;;;;;;;3.63;1.20;;;;;;;;;;5015229;28;20037;-78
2023/07/21 10:52:13;;;;;;;1.75;1.50;;;;;;;;;;5016265;28;20029;-78
2023/07/21 10:54:39;;;;;;;1.40;1.30;;;;;;;;;;5011971;28;20113;-77
2023/07/21 10:57:05;;;;;;;1.45;1.35;;;;;;;;;;5012681;28;20029;-77
2023/07/21 10:59:32;;;;;;;3.05;1.60;;;;;;;;;;5011580;28;20048;-77
2023/07/21 11:01:57;;;;;;;5.13;1.52;;;;;;;;;;5012704;28;20108;-77
2023/07/21 11:04:23;;;;;;;3.13;1.40;;;;;;;;;;5011765;28;20061;-77
2023/07/21 11:06:51;;;;;;;1.65;1.48;;;;;;;;;;5012480;28;20022;-77
2023/07/21 11:09:17;;;;;;;2.40;1.45;;;;;;;;;;5011740;28;20034;-77
2023/07/21 11:11:44;;;;;;;2.33;1.50;;;;;;;;;;5013705;28;20026;-77
2023/07/21 11:14:14;;;;;;;3.75;1.60;;;;;;;;;;5015140;28;20017;-78
2023/07/21 11:16:48;;;;;;;2.80;1.60;;;;;;;;;;5017797;28;20108;-77
2023/07/21 11:19:15;;;;;;;1.92;1.52;;;;;;;;;;5018255;28;20034;-78
2023/07/21 11:21:40;;;;;;;2.13;1.70;;;;;;;;;;5019943;28;20493;-78
2023/07/21 11:24:08;;;;;;;3.15;1.58;;;;;;;;;;5021831;28;20065;-78
2023/07/21 11:26:33;;;;;;;2.30;1.63;;;;;;;;;;5019375;28;20026;-78
2023/07/21 11:28:59;;;;;;;5.88;1.98;;;;;;;;;;5016833;28;20026;-79
2023/07/21 11:31:25;;;;;;;2.47;1.80;;;;;;;;;;5014056;28;20076;-77
2023/07/21 11:33:51;;;;;;;6.25;1.58;;;;;;;;;;5015651;28;20018;-77
2023/07/21 11:36:21;;;;;;;8.07;1.70;;;;;;;;;;5017106;28;20056;-78
2023/07/21 11:39:04;;;;;;;7.20;1.50;;;;;;;;;;5018350;28;20036;-79
2023/07/21 11:41:54;;;;;;;2.23;1.50;;;;;;;;;;5017820;28;20060;-78
2023/07/21 11:44:25;;;;;;;5.15;1.80;;;;;;;;;;5007817;28;20030;-76
2023/07/21 11:47:03;;;;;;;4.38;1.63;;;;;;;;;;5016146;28;20101;-78
2023/07/21 11:49:29;;;;;;;5.00;1.88;;;;;;;;;;5014701;28;20038;-78
2023/07/21 11:52:00;;;;;;;4.65;1.67;;;;;;;;;;5014587;28;20542;-78
2023/07/21 11:54:27;;;;;;;1.92;1.60;;;;;;;;;;5014686;28;20026;-78
2023/07/21 11:56:54;;;;;;;2.95;1.77;;;;;;;;;;5015791;28;20033;-78
2023/07/21 11:59:21;;;;;;;2.40;1.80;;;;;;;;;;5015794;28;20030;-77
2023/07/21 12:01:47;;;;;;;4.25;1.73;;;;;;;;;;5014336;28;20029;-78
2023/07/21 12:04:13;;;;;;;2.33;1.80;;;;;;;;;;5015916;28;20029;-77
2023/07/21 12:06:39;;;;;;;3.63;1.95;;;;;;;;;;5016225;28;20018;-78
2023/07/21 12:09:06;;;;;;;3.97;2.17;;;;;;;;;;5015899;28;20061;-78
2023/07/21 12:11:39;;;;;;;3.75;1.95;;;;;;;;;;5014074;28;20459;-77
2023/07/21 12:14:05;;;;;;;2.90;2.20;;;;;;;;;;5015939;28;20030;-77
2023/07/21 12:16:31;;;;;;;2.88;2.00;;;;;;;;;;5015579;28;20022;-77
2023/07/21 12:18:57;;;;;;;3.22;2.08;;;;;;;;;;5015757;28;20411;-77
2023/07/21 12:21:24;;;;;;;6.97;2.25;;;;;;;;;;5015471;28;20035;-77
2023/07/21 12:23:49;;;;;;;3.05;2.05;;;;;;;;;;5015380;28;20049;-77
2023/07/21 12:26:14;;;;;;;2.75;2.22;;;;;;;;;;5017870;28;20031;-79
2023/07/21 12:28:41;;;;;;;3.72;2.05;;;;;;;;;;5018394;28;20056;-77
2023/07/21 12:31:06;;;;;;;3.33;2.25;;;;;;;;;;5018393;28;20022;-76
2023/07/21 12:33:32;;;;;;;3.90;2.40;;;;;;;;;;5013932;28;20030;-76
2023/07/21 12:35:57;;;;;;;3.20;2.00;;;;;;;;;;5017090;28;20489;-76
2023/07/21 12:38:22;;;;;;;2.65;1.92;;;;;;;;;;5014293;28;20029;-75
2023/07/21 12:40:48;;;;;;;5.35;1.95;;;;;;;;;;5014492;28;20029;-76
2023/07/21 12:43:13;;;;;;;5.40;2.10;;;;;;;;;;5015561;28;20026;-77
2023/07/21 12:45:39;;;;;;;6.10;2.30;;;;;;;;;;5014369;28;20030;-76
2023/07/21 12:48:05;;;;;;;2.78;2.03;;;;;;;;;;5014325;28;20278;-77
2023/07/21 12:50:31;;;;;;;4.82;1.98;;;;;;;;;;5013293;28;20037;-76
2023/07/21 12:52:56;;;;;;;3.40;2.00;;;;;;;;;;5013641;28;20030;-77
2023/07/21 12:55:21;;;;;;;3.10;1.92;;;;;;;;;;5013066;28;20051;-77
2023/07/21 12:57:47;;;;;;;3.33;2.10;;;;;;;;;;5013018;28;20021;-77
2023/07/21 13:00:13;;;;;;;6.40;2.03;;;;;;;;;;5014314;28;20424;-77
2023/07/21 13:02:40;;;;;;;7.20;2.13;;;;;;;;;;5014241;28;20435;-76
2023/07/21 13:05:11;;;;;;;5.45;1.90;;;;;;;;;;5013116;28;20377;-77
2023/07/21 13:07:38;;;;;;;4.00;2.08;;;;;;;;;;5014395;28;20021;-76
2023/07/21 13:10:03;;;;;;;2.85;2.13;;;;;;;;;;5014206;28;20026;-78
2023/07/21 13:12:29;;;;;;;4.95;2.28;;;;;;;;;;5012625;28;20028;-77
2023/07/21 13:14:54;;;;;;;2.80;2.10;;;;;;;;;;5013918;28;20035;-76
2023/07/21 13:17:20;;;;;;;2.80;2.00;;;;;;;;;;5013854;28;20275;-76
2023/07/21 13:19:45;;;;;;;2.60;2.08;;;;;;;;;;5012772;28;20625;-76
2023/07/21 13:22:10;;;;;;;3.78;1.83;;;;;;;;;;5012583;28;20396;-76
2023/07/21 13:24:35;;;;;;;3.40;2.20;;;;;;;;;;5013870;28;20481;-77
2023/07/21 13:27:01;;;;;;;3.30;2.27;;;;;;;;;;5014018;28;20640;-76
2023/07/21 13:29:27;;;;;;;5.32;2.30;;;;;;;;;;5013656;28;20596;-77
2023/07/21 13:31:52;;;;;;;4.22;1.98;;;;;;;;;;5013631;28;20034;-76
2023/07/21 13:34:18;;;;;;;6.97;2.30;;;;;;;;;;5013931;28;20021;-76
2023/07/21 13:36:44;;;;;;;3.60;1.80;;;;;;;;;;5013641;28;20029;-77
2023/07/21 13:39:09;;;;;;;4.32;2.13;;;;;;;;;;5013513;28;20026;-77
2023/07/21 13:41:34;;;;;;;7.40;1.93;;;;;;;;;;5013504;28;20481;-77
2023/07/21 13:44:00;;;;;;;3.47;1.95;;;;;;;;;;5013011;28;20291;-77
2023/07/21 13:46:25;;;;;;;3.05;2.00;;;;;;;;;;5013462;28;20109;-77
2023/07/21 13:48:51;;;;;;;3.22;1.92;;;;;;;;;;5012322;28;20080;-76
2023/07/21 13:51:17;;;;;;;7.40;2.05;;;;;;;;;;5012097;28;20022;-76
2023/07/21 13:53:42;;;;;;;1.90;1.65;;;;;;;;;;5013339;28;20022;-77
2023/07/21 13:56:07;;;;;;;2.72;1.90;;;;;;;;;;5012417;28;20100;-76
2023/07/21 13:58:32;;;;;;;2.15;1.70;;;;;;;;;;5013182;28;20022;-76
2023/07/21 14:00:58;;;;;;;2.25;1.80;;;;;;;;;;5013434;28;20022;-76
2023/07/21 14:03:26;;;;;;;3.28;1.70;;;;;;;;;;5013274;28;20029;-76
2023/07/21 14:05:52;;;;;;;2.63;1.75;;;;;;;;;;5011980;28;20026;-76
2023/07/21 14:08:18;;;;;;;4.18;1.60;;;;;;;;;;5011907;28;20022;-76
2023/07/21 14:10:44;;;;;;;5.13;1.70;;;;;;;;;;5013263;28;20572;-76
2023/07/21 14:13:09;;;;;;;2.58;1.73;;;;;;;;;;5013107;28;20113;-76
2023/07/21 14:15:34;;;;;;;2.47;1.70;;;;;;;;;;5013383;28;20026;-75
2023/07/21 14:18:00;;;;;;;1.67;1.58;;;;;;;;;;5013372;28;20304;-76
2023/07/21 14:20:25;;;;;;;4.50;2.00;;;;;;;;;;5013081;28;20084;-77
2023/07/21 14:22:50;;;;;;;1.77;1.60;;;;;;;;;;5013134;28;20033;-76
2023/07/21 14:25:16;;;;;;;2.55;1.70;;;;;;;;;;5013106;28;20018;-75
2023/07/21 14:27:41;;;;;;;2.75;1.70;;;;;;;;;;5013358;28;20026;-76
2023/07/21 14:30:07;;;;;;;4.20;1.70;;;;;;;;;;5013282;28;20026;-76
2023/07/21 14:32:32;;;;;;;2.03;1.58;;;;;;;;;;5013035;28;20262;-76
2023/07/21 14:34:58;;;;;;;3.00;1.60;;;;;;;;;;5012967;28;20026;-76
2023/07/21 14:37:24;;;;;;;2.45;1.70;;;;;;;;;;5012949;28;20026;-76
2023/07/21 14:39:50;;;;;;;2.78;1.60;;;;;;;;;;5012982;28;20022;-76